sensor_id;sensor_type;location;lat;lon;timestamp;temperature;humidity
24636;DHT22;12772;49.794;10.024;2023-02-11T00:02:59;3.60;47.90
24636;DHT22;12772;49.794;10.024;2023-02-11T00:07:01;3.20;47.50
24636;DHT22;12772;49.794;10.024;2023-02-11T00:11:04;3.10;47.30
24636;DHT22;12772;49.794;10.024;2023-02-11T00:15:07;3.60;47.90
24636;DHT22;12772;49.794;10.024;2023-02-11T00:19:09;3.60;47.70
24636;DHT22;12772;49.794;10.024;2023-02-11T00:23:11;3.40;47.50
24636;DHT22;12772;49.794;10.024;2023-02-11T00:27:13;3.10;47.30
24636;DHT22;12772;49.794;10.024;2023-02-11T00:31:16;3.40;47.60
24636;DHT22;12772;49.794;10.024;2023-02-11T00:35:18;3.70;47.90
24636;DHT22;12772;49.794;10.024;2023-02-11T00:39:20;3.80;47.90
24636;DHT22;12772;49.794;10.024;2023-02-11T00:43:23;4.00;48.10
24636;DHT22;12772;49.794;10.024;2023-02-11T00:47:25;3.50;47.70
24636;DHT22;12772;49.794;10.024;2023-02-11T00:51:28;3.80;47.90
24636;DHT22;12772;49.794;10.024;2023-02-11T00:55:30;3.80;47.90
24636;DHT22;12772;49.794;10.024;2023-02-11T00:59:32;3.40;47.50
24636;DHT22;12772;49.794;10.024;2023-02-11T01:03:34;3.40;47.50
24636;DHT22;12772;49.794;10.024;2023-02-11T01:07:36;3.90;47.90
24636;DHT22;12772;49.794;10.024;2023-02-11T01:11:38;3.90;47.90
24636;DHT22;12772;49.794;10.024;2023-02-11T01:15:40;3.90;48.00
24636;DHT22;12772;49.794;10.024;2023-02-11T01:19:42;4.00;48.00
24636;DHT22;12772;49.794;10.024;2023-02-11T01:23:44;3.50;47.50
24636;DHT22;12772;49.794;10.024;2023-02-11T01:27:46;4.00;47.90
24636;DHT22;12772;49.794;10.024;2023-02-11T01:31:48;3.40;47.40
24636;DHT22;12772;49.794;10.024;2023-02-11T01:35:51;3.80;48.10
24636;DHT22;12772;49.794;10.024;2023-02-11T01:39:53;3.30;47.50
24636;DHT22;12772;49.794;10.024;2023-02-11T01:43:55;3.80;48.10
24636;DHT22;12772;49.794;10.024;2023-02-11T01:47:57;4.00;48.40
24636;DHT22;12772;49.794;10.024;2023-02-11T01:56:13;4.00;48.70
24636;DHT22;12772;49.794;10.024;2023-02-11T02:00:35;3.80;48.70
24636;DHT22;12772;49.794;10.024;2023-02-11T02:09:28;3.70;49.00
24636;DHT22;12772;49.794;10.024;2023-02-11T02:13:33;3.50;49.80
24636;DHT22;12772;49.794;10.024;2023-02-11T02:17:49;3.60;49.40
24636;DHT22;12772;49.794;10.024;2023-02-11T02:22:21;3.10;49.00
24636;DHT22;12772;49.794;10.024;2023-02-11T02:26:53;3.20;49.10
24636;DHT22;12772;49.794;10.024;2023-02-11T02:31:22;3.60;49.50
24636;DHT22;12772;49.794;10.024;2023-02-11T02:35:39;3.80;49.60
24636;DHT22;12772;49.794;10.024;2023-02-11T02:39:44;3.80;49.50
24636;DHT22;12772;49.794;10.024;2023-02-11T02:43:49;3.70;49.40
24636;DHT22;12772;49.794;10.024;2023-02-11T02:47:51;3.60;49.20
24636;DHT22;12772;49.794;10.024;2023-02-11T02:56:14;3.80;49.40
24636;DHT22;12772;49.794;10.024;2023-02-11T03:00:31;3.90;49.70
24636;DHT22;12772;49.794;10.024;2023-02-11T03:04:49;4.00;49.70
24636;DHT22;12772;49.794;10.024;2023-02-11T03:08:58;3.40;49.10
24636;DHT22;12772;49.794;10.024;2023-02-11T03:13:04;3.40;49.30
24636;DHT22;12772;49.794;10.024;2023-02-11T03:17:08;4.20;50.10
24636;DHT22;12772;49.794;10.024;2023-02-11T03:21:12;4.00;49.80
24636;DHT22;12772;49.794;10.024;2023-02-11T03:25:17;3.90;49.80
24636;DHT22;12772;49.794;10.024;2023-02-11T03:29:37;4.00;50.00
24636;DHT22;12772;49.794;10.024;2023-02-11T03:38:54;3.80;49.90
24636;DHT22;12772;49.794;10.024;2023-02-11T03:42:34;3.70;50.10
24636;DHT22;12772;49.794;10.024;2023-02-11T03:46:40;4.00;50.50
24636;DHT22;12772;49.794;10.024;2023-02-11T03:50:46;3.60;50.10
24636;DHT22;12772;49.794;10.024;2023-02-11T03:54:52;4.20;50.60
24636;DHT22;12772;49.794;10.024;2023-02-11T03:58:55;4.10;50.60
24636;DHT22;12772;49.794;10.024;2023-02-11T04:02:57;3.90;50.50
24636;DHT22;12772;49.794;10.024;2023-02-11T04:06:59;4.10;50.70
24636;DHT22;12772;49.794;10.024;2023-02-11T04:11:01;3.80;50.40
24636;DHT22;12772;49.794;10.024;2023-02-11T04:15:03;4.00;50.80
24636;DHT22;12772;49.794;10.024;2023-02-11T04:19:05;4.00;50.70
24636;DHT22;12772;49.794;10.024;2023-02-11T04:23:08;3.80;50.60
24636;DHT22;12772;49.794;10.024;2023-02-11T04:27:10;4.20;50.90
24636;DHT22;12772;49.794;10.024;2023-02-11T04:31:12;3.90;50.60
24636;DHT22;12772;49.794;10.024;2023-02-11T04:35:14;3.80;50.40
24636;DHT22;12772;49.794;10.024;2023-02-11T04:39:16;4.20;50.70
24636;DHT22;12772;49.794;10.024;2023-02-11T04:43:18;4.10;50.60
24636;DHT22;12772;49.794;10.024;2023-02-11T04:47:21;3.70;50.30
24636;DHT22;12772;49.794;10.024;2023-02-11T04:51:23;3.70;50.40
24636;DHT22;12772;49.794;10.024;2023-02-11T04:55:25;4.20;50.90
24636;DHT22;12772;49.794;10.024;2023-02-11T04:59:27;4.00;50.70
24636;DHT22;12772;49.794;10.024;2023-02-11T05:03:29;4.10;51.00
24636;DHT22;12772;49.794;10.024;2023-02-11T05:07:31;4.10;51.10
24636;DHT22;12772;49.794;10.024;2023-02-11T05:11:34;4.40;51.50
24636;DHT22;12772;49.794;10.024;2023-02-11T05:15:36;4.10;51.30
24636;DHT22;12772;49.794;10.024;2023-02-11T05:19:38;3.80;51.10
24636;DHT22;12772;49.794;10.024;2023-02-11T05:23:42;3.60;51.00
24636;DHT22;12772;49.794;10.024;2023-02-11T05:27:44;3.60;51.40
24636;DHT22;12772;49.794;10.024;2023-02-11T05:31:46;4.00;51.90
24636;DHT22;12772;49.794;10.024;2023-02-11T05:35:48;4.10;52.00
24636;DHT22;12772;49.794;10.024;2023-02-11T05:39:50;3.70;51.60
24636;DHT22;12772;49.794;10.024;2023-02-11T05:43:52;4.00;51.90
24636;DHT22;12772;49.794;10.024;2023-02-11T05:47:54;3.70;51.60
24636;DHT22;12772;49.794;10.024;2023-02-11T05:51:56;4.20;52.10
24636;DHT22;12772;49.794;10.024;2023-02-11T05:55:58;4.20;52.10
24636;DHT22;12772;49.794;10.024;2023-02-11T06:00:00;4.10;52.00
24636;DHT22;12772;49.794;10.024;2023-02-11T06:04:02;4.10;52.00
24636;DHT22;12772;49.794;10.024;2023-02-11T06:08:04;3.70;51.60
24636;DHT22;12772;49.794;10.024;2023-02-11T06:12:06;4.20;52.10
24636;DHT22;12772;49.794;10.024;2023-02-11T06:16:08;4.30;52.20
24636;DHT22;12772;49.794;10.024;2023-02-11T06:20:10;4.30;52.20
24636;DHT22;12772;49.794;10.024;2023-02-11T06:24:13;4.20;52.10
24636;DHT22;12772;49.794;10.024;2023-02-11T06:28:15;3.80;51.70
24636;DHT22;12772;49.794;10.024;2023-02-11T06:32:17;3.90;51.80
24636;DHT22;12772;49.794;10.024;2023-02-11T06:36:21;4.30;52.20
24636;DHT22;12772;49.794;10.024;2023-02-11T06:40:23;3.90;51.80
24636;DHT22;12772;49.794;10.024;2023-02-11T06:44:25;4.30;52.20
24636;DHT22;12772;49.794;10.024;2023-02-11T06:48:27;3.70;51.60
24636;DHT22;12772;49.794;10.024;2023-02-11T06:52:29;4.00;51.90
24636;DHT22;12772;49.794;10.024;2023-02-11T06:56:31;3.80;51.70
24636;DHT22;12772;49.794;10.024;2023-02-11T07:00:36;4.10;52.00
24636;DHT22;12772;49.794;10.024;2023-02-11T07:04:38;4.30;52.20
24636;DHT22;12772;49.794;10.024;2023-02-11T07:08:40;3.60;51.50
24636;DHT22;12772;49.794;10.024;2023-02-11T07:12:43;4.30;52.20
24636;DHT22;12772;49.794;10.024;2023-02-11T07:16:45;4.20;52.10
24636;DHT22;12772;49.794;10.024;2023-02-11T07:20:47;4.10;52.00
24636;DHT22;12772;49.794;10.024;2023-02-11T07:24:49;4.30;52.20
24636;DHT22;12772;49.794;10.024;2023-02-11T07:28:51;4.40;52.30
24636;DHT22;12772;49.794;10.024;2023-02-11T07:32:54;4.00;51.90
24636;DHT22;12772;49.794;10.024;2023-02-11T07:36:56;4.40;52.30
24636;DHT22;12772;49.794;10.024;2023-02-11T07:41:00;4.50;52.40
24636;DHT22;12772;49.794;10.024;2023-02-11T07:45:02;4.20;52.10
24636;DHT22;12772;49.794;10.024;2023-02-11T07:49:04;4.40;52.30
24636;DHT22;12772;49.794;10.024;2023-02-11T07:53:06;4.60;52.60
24636;DHT22;12772;49.794;10.024;2023-02-11T07:57:08;4.60;52.00
24636;DHT22;12772;49.794;10.024;2023-02-11T08:01:16;4.50;51.80
24636;DHT22;12772;49.794;10.024;2023-02-11T08:05:19;4.50;51.70
24636;DHT22;12772;49.794;10.024;2023-02-11T08:09:20;4.70;51.80
24636;DHT22;12772;49.794;10.024;2023-02-11T08:13:23;4.70;51.80
24636;DHT22;12772;49.794;10.024;2023-02-11T08:17:26;4.50;51.40
24636;DHT22;12772;49.794;10.024;2023-02-11T08:21:28;4.60;51.40
24636;DHT22;12772;49.794;10.024;2023-02-11T08:25:31;4.30;51.00
24636;DHT22;12772;49.794;10.024;2023-02-11T08:29:33;4.30;50.90
24636;DHT22;12772;49.794;10.024;2023-02-11T08:33:36;4.40;50.90
24636;DHT22;12772;49.794;10.024;2023-02-11T08:37:40;4.80;51.30
24636;DHT22;12772;49.794;10.024;2023-02-11T08:41:42;4.80;51.20
24636;DHT22;12772;49.794;10.024;2023-02-11T08:45:44;4.40;50.70
24636;DHT22;12772;49.794;10.024;2023-02-11T08:49:46;4.40;50.70
24636;DHT22;12772;49.794;10.024;2023-02-11T08:53:49;4.90;51.40
24636;DHT22;12772;49.794;10.024;2023-02-11T08:57:51;5.10;51.40
24636;DHT22;12772;49.794;10.024;2023-02-11T09:01:53;4.70;50.80
24636;DHT22;12772;49.794;10.024;2023-02-11T09:05:56;4.60;50.50
24636;DHT22;12772;49.794;10.024;2023-02-11T09:09:58;4.80;50.90
24636;DHT22;12772;49.794;10.024;2023-02-11T09:14:01;5.30;51.30
24636;DHT22;12772;49.794;10.024;2023-02-11T09:18:04;5.40;51.20
24636;DHT22;12772;49.794;10.024;2023-02-11T09:22:06;5.40;51.10
24636;DHT22;12772;49.794;10.024;2023-02-11T09:26:11;5.60;51.10
24636;DHT22;12772;49.794;10.024;2023-02-11T09:30:13;5.20;50.60
24636;DHT22;12772;49.794;10.024;2023-02-11T09:34:15;5.50;50.80
24636;DHT22;12772;49.794;10.024;2023-02-11T09:38:17;5.60;50.60
24636;DHT22;12772;49.794;10.024;2023-02-11T09:51:28;6.50;51.00
24636;DHT22;12772;49.794;10.024;2023-02-11T09:55:39;6.80;50.70
24636;DHT22;12772;49.794;10.024;2023-02-11T09:59:42;6.10;49.70
24636;DHT22;12772;49.794;10.024;2023-02-11T10:08:05;6.80;50.10
24636;DHT22;12772;49.794;10.024;2023-02-11T10:12:36;7.00;50.20
24636;DHT22;12772;49.794;10.024;2023-02-11T10:17:21;6.90;50.00
24636;DHT22;12772;49.794;10.024;2023-02-11T10:21:33;7.00;50.10
24636;DHT22;12772;49.794;10.024;2023-02-11T10:25:40;7.40;50.30
24636;DHT22;12772;49.794;10.024;2023-02-11T10:29:52;7.30;49.90
24636;DHT22;12772;49.794;10.024;2023-02-11T10:34:04;7.10;49.30
24636;DHT22;12772;49.794;10.024;2023-02-11T10:38:08;7.60;49.50
24636;DHT22;12772;49.794;10.024;2023-02-11T10:42:11;7.40;49.10
24636;DHT22;12772;49.794;10.024;2023-02-11T10:46:24;7.50;49.30
24636;DHT22;12772;49.794;10.024;2023-02-11T10:50:31;7.10;48.70
24636;DHT22;12772;49.794;10.024;2023-02-11T10:54:35;7.10;48.90
24636;DHT22;12772;49.794;10.024;2023-02-11T10:58:55;7.40;49.30
24636;DHT22;12772;49.794;10.024;2023-02-11T11:02:59;7.60;49.50
24636;DHT22;12772;49.794;10.024;2023-02-11T11:07:24;7.80;49.70
24636;DHT22;12772;49.794;10.024;2023-02-11T11:11:26;7.80;49.70
24636;DHT22;12772;49.794;10.024;2023-02-11T11:15:30;7.50;49.30
24636;DHT22;12772;49.794;10.024;2023-02-11T11:19:32;7.80;49.50
24636;DHT22;12772;49.794;10.024;2023-02-11T11:23:36;7.70;49.40
24636;DHT22;12772;49.794;10.024;2023-02-11T11:27:39;7.70;49.40
24636;DHT22;12772;49.794;10.024;2023-02-11T11:31:53;7.70;49.40
24636;DHT22;12772;49.794;10.024;2023-02-11T11:36:03;7.80;49.40
24636;DHT22;12772;49.794;10.024;2023-02-11T11:40:08;7.80;49.30
24636;DHT22;12772;49.794;10.024;2023-02-11T11:48:36;7.80;49.40
24636;DHT22;12772;49.794;10.024;2023-02-11T11:53:05;7.80;49.60
24636;DHT22;12772;49.794;10.024;2023-02-11T11:57:17;7.90;49.60
24636;DHT22;12772;49.794;10.024;2023-02-11T12:01:30;7.90;49.70
24636;DHT22;12772;49.794;10.024;2023-02-11T12:15:11;8.10;49.30
24636;DHT22;12772;49.794;10.024;2023-02-11T12:27:41;8.40;49.00
24636;DHT22;12772;49.794;10.024;2023-02-11T12:36:21;8.50;48.70
24636;DHT22;12772;49.794;10.024;2023-02-11T12:40:45;8.50;48.60
24636;DHT22;12772;49.794;10.024;2023-02-11T12:49:44;8.40;48.70
24636;DHT22;12772;49.794;10.024;2023-02-11T12:58:34;8.50;49.20
24636;DHT22;12772;49.794;10.024;2023-02-11T13:07:04;8.30;48.90
24636;DHT22;12772;49.794;10.024;2023-02-11T13:11:23;8.20;49.00
24636;DHT22;12772;49.794;10.024;2023-02-11T13:15:27;8.50;49.40
24636;DHT22;12772;49.794;10.024;2023-02-11T13:23:45;8.40;49.50
24636;DHT22;12772;49.794;10.024;2023-02-11T13:27:57;8.60;49.60
24636;DHT22;12772;49.794;10.024;2023-02-11T13:40:22;8.60;49.20
24636;DHT22;12772;49.794;10.024;2023-02-11T13:44:25;8.70;49.40
24636;DHT22;12772;49.794;10.024;2023-02-11T13:48:34;8.70;49.40
24636;DHT22;12772;49.794;10.024;2023-02-11T13:52:37;8.40;49.10
24636;DHT22;12772;49.794;10.024;2023-02-11T13:56:42;8.20;49.70
24636;DHT22;12772;49.794;10.024;2023-02-11T14:00:48;8.70;49.70
24636;DHT22;12772;49.794;10.024;2023-02-11T14:09:33;8.50;49.60
24636;DHT22;12772;49.794;10.024;2023-02-11T14:17:50;8.30;49.80
24636;DHT22;12772;49.794;10.024;2023-02-11T14:21:52;8.80;50.40
24636;DHT22;12772;49.794;10.024;2023-02-11T14:30:49;8.50;50.40
24636;DHT22;12772;49.794;10.024;2023-02-11T14:43:49;8.40;51.10
24636;DHT22;12772;49.794;10.024;2023-02-11T14:48:05;8.40;51.60
24636;DHT22;12772;49.794;10.024;2023-02-11T14:52:29;8.70;52.20
24636;DHT22;12772;49.794;10.024;2023-02-11T14:56:32;8.40;52.20
24636;DHT22;12772;49.794;10.024;2023-02-11T15:00:36;8.30;52.30
24636;DHT22;12772;49.794;10.024;2023-02-11T15:04:38;8.30;52.50
24636;DHT22;12772;49.794;10.024;2023-02-11T15:08:46;8.30;52.60
24636;DHT22;12772;49.794;10.024;2023-02-11T15:12:49;8.30;52.70
24636;DHT22;12772;49.794;10.024;2023-02-11T15:16:53;8.20;52.60
24636;DHT22;12772;49.794;10.024;2023-02-11T15:20:58;8.20;52.60
24636;DHT22;12772;49.794;10.024;2023-02-11T15:25:07;8.30;52.70
24636;DHT22;12772;49.794;10.024;2023-02-11T15:29:15;8.10;52.50
24636;DHT22;12772;49.794;10.024;2023-02-11T15:33:22;8.10;52.50
24636;DHT22;12772;49.794;10.024;2023-02-11T15:37:27;8.40;52.80
24636;DHT22;12772;49.794;10.024;2023-02-11T15:41:35;8.30;52.80
24636;DHT22;12772;49.794;10.024;2023-02-11T15:45:58;8.40;52.90
24636;DHT22;12772;49.794;10.024;2023-02-11T15:50:02;8.40;52.90
24636;DHT22;12772;49.794;10.024;2023-02-11T15:54:07;8.30;53.40
24636;DHT22;12772;49.794;10.024;2023-02-11T15:58:15;8.50;52.90
24636;DHT22;12772;49.794;10.024;2023-02-11T16:02:20;8.00;53.10
24636;DHT22;12772;49.794;10.024;2023-02-11T16:06:25;8.20;52.60
24636;DHT22;12772;49.794;10.024;2023-02-11T16:10:33;7.80;52.30
24636;DHT22;12772;49.794;10.024;2023-02-11T16:14:35;8.00;52.70
24636;DHT22;12772;49.794;10.024;2023-02-11T16:18:44;8.10;52.90
24636;DHT22;12772;49.794;10.024;2023-02-11T16:22:49;7.70;52.60
24636;DHT22;12772;49.794;10.024;2023-02-11T16:26:53;7.70;52.80
24636;DHT22;12772;49.794;10.024;2023-02-11T16:30:56;8.00;53.20
24636;DHT22;12772;49.794;10.024;2023-02-11T16:34:59;8.00;53.30
24636;DHT22;12772;49.794;10.024;2023-02-11T16:39:01;8.00;53.50
24636;DHT22;12772;49.794;10.024;2023-02-11T16:43:03;8.00;53.60
24636;DHT22;12772;49.794;10.024;2023-02-11T16:47:11;7.80;53.70
24636;DHT22;12772;49.794;10.024;2023-02-11T16:51:15;7.90;53.90
24636;DHT22;12772;49.794;10.024;2023-02-11T16:55:18;7.50;53.90
24636;DHT22;12772;49.794;10.024;2023-02-11T16:59:20;7.40;53.90
24636;DHT22;12772;49.794;10.024;2023-02-11T17:03:24;7.50;54.20
24636;DHT22;12772;49.794;10.024;2023-02-11T17:07:28;7.80;54.60
24636;DHT22;12772;49.794;10.024;2023-02-11T17:11:30;8.00;55.10
24636;DHT22;12772;49.794;10.024;2023-02-11T17:15:32;7.40;54.80
24636;DHT22;12772;49.794;10.024;2023-02-11T17:19:34;7.40;55.40
24636;DHT22;12772;49.794;10.024;2023-02-11T17:23:36;7.20;55.20
24636;DHT22;12772;49.794;10.024;2023-02-11T17:27:38;7.70;55.80
24636;DHT22;12772;49.794;10.024;2023-02-11T17:31:41;7.30;55.40
24636;DHT22;12772;49.794;10.024;2023-02-11T17:35:43;7.70;55.80
24636;DHT22;12772;49.794;10.024;2023-02-11T17:39:45;7.70;55.80
24636;DHT22;12772;49.794;10.024;2023-02-11T17:43:47;7.30;55.30
24636;DHT22;12772;49.794;10.024;2023-02-11T17:47:49;7.20;55.20
24636;DHT22;12772;49.794;10.024;2023-02-11T17:51:52;7.40;55.50
24636;DHT22;12772;49.794;10.024;2023-02-11T17:55:54;7.40;55.40
24636;DHT22;12772;49.794;10.024;2023-02-11T17:59:56;7.60;55.60
24636;DHT22;12772;49.794;10.024;2023-02-11T18:03:59;7.30;55.40
24636;DHT22;12772;49.794;10.024;2023-02-11T18:08:02;7.60;55.60
24636;DHT22;12772;49.794;10.024;2023-02-11T18:12:06;7.70;55.80
24636;DHT22;12772;49.794;10.024;2023-02-11T18:16:08;7.60;55.70
24636;DHT22;12772;49.794;10.024;2023-02-11T18:20:15;7.80;55.90
24636;DHT22;12772;49.794;10.024;2023-02-11T18:24:17;7.80;55.90
24636;DHT22;12772;49.794;10.024;2023-02-11T18:28:19;7.60;55.60
24636;DHT22;12772;49.794;10.024;2023-02-11T18:32:21;7.80;55.90
24636;DHT22;12772;49.794;10.024;2023-02-11T18:36:23;7.20;55.20
24636;DHT22;12772;49.794;10.024;2023-02-11T18:40:25;7.60;55.70
24636;DHT22;12772;49.794;10.024;2023-02-11T18:44:28;7.50;55.60
24636;DHT22;12772;49.794;10.024;2023-02-11T18:48:30;7.60;55.70
24636;DHT22;12772;49.794;10.024;2023-02-11T18:52:33;7.10;55.20
24636;DHT22;12772;49.794;10.024;2023-02-11T18:56:36;7.50;55.60
24636;DHT22;12772;49.794;10.024;2023-02-11T19:00:41;7.10;55.20
24636;DHT22;12772;49.794;10.024;2023-02-11T19:04:44;7.50;55.60
24636;DHT22;12772;49.794;10.024;2023-02-11T19:08:46;7.60;55.70
24636;DHT22;12772;49.794;10.024;2023-02-11T19:12:49;7.30;55.30
24636;DHT22;12772;49.794;10.024;2023-02-11T19:16:55;7.50;55.50
24636;DHT22;12772;49.794;10.024;2023-02-11T19:20:57;7.20;55.20
24636;DHT22;12772;49.794;10.024;2023-02-11T19:24:59;7.20;55.20
24636;DHT22;12772;49.794;10.024;2023-02-11T19:29:03;7.70;55.80
24636;DHT22;12772;49.794;10.024;2023-02-11T19:33:05;7.70;55.80
24636;DHT22;12772;49.794;10.024;2023-02-11T19:37:08;7.10;55.20
24636;DHT22;12772;49.794;10.024;2023-02-11T19:41:12;7.60;55.70
24636;DHT22;12772;49.794;10.024;2023-02-11T19:45:15;7.30;55.40
24636;DHT22;12772;49.794;10.024;2023-02-11T19:49:18;7.50;55.60
24636;DHT22;12772;49.794;10.024;2023-02-11T19:53:22;7.50;55.60
24636;DHT22;12772;49.794;10.024;2023-02-11T19:57:25;7.50;55.60
24636;DHT22;12772;49.794;10.024;2023-02-11T20:01:27;7.20;55.30
24636;DHT22;12772;49.794;10.024;2023-02-11T20:05:29;7.50;55.60
24636;DHT22;12772;49.794;10.024;2023-02-11T20:09:31;7.10;55.20
24636;DHT22;12772;49.794;10.024;2023-02-11T20:13:33;7.40;55.50
24636;DHT22;12772;49.794;10.024;2023-02-11T20:17:35;7.50;55.60
24636;DHT22;12772;49.794;10.024;2023-02-11T20:21:37;7.50;55.60
24636;DHT22;12772;49.794;10.024;2023-02-11T20:25:39;7.50;56.40
24636;DHT22;12772;49.794;10.024;2023-02-11T20:29:41;7.50;55.80
24636;DHT22;12772;49.794;10.024;2023-02-11T20:33:45;7.50;55.90
24636;DHT22;12772;49.794;10.024;2023-02-11T20:37:47;7.60;56.00
24636;DHT22;12772;49.794;10.024;2023-02-11T20:41:50;7.40;55.80
24636;DHT22;12772;49.794;10.024;2023-02-11T20:45:53;7.00;55.40
24636;DHT22;12772;49.794;10.024;2023-02-11T20:49:55;7.10;55.60
24636;DHT22;12772;49.794;10.024;2023-02-11T20:53:59;7.50;56.40
24636;DHT22;12772;49.794;10.024;2023-02-11T20:58:01;7.60;56.60
24636;DHT22;12772;49.794;10.024;2023-02-11T21:02:03;7.10;56.20
24636;DHT22;12772;49.794;10.024;2023-02-11T21:06:05;7.20;56.40
24636;DHT22;12772;49.794;10.024;2023-02-11T21:10:08;7.60;56.80
24636;DHT22;12772;49.794;10.024;2023-02-11T21:14:11;7.50;56.80
24636;DHT22;12772;49.794;10.024;2023-02-11T21:18:13;7.40;56.60
24636;DHT22;12772;49.794;10.024;2023-02-11T21:22:15;7.40;56.70
24636;DHT22;12772;49.794;10.024;2023-02-11T21:26:17;7.60;56.90
24636;DHT22;12772;49.794;10.024;2023-02-11T21:30:19;7.60;57.00
24636;DHT22;12772;49.794;10.024;2023-02-11T21:34:21;7.40;56.80
24636;DHT22;12772;49.794;10.024;2023-02-11T21:38:24;7.40;56.90
24636;DHT22;12772;49.794;10.024;2023-02-11T21:42:26;7.50;57.20
24636;DHT22;12772;49.794;10.024;2023-02-11T21:46:28;7.10;56.80
24636;DHT22;12772;49.794;10.024;2023-02-11T21:50:30;7.40;57.20
24636;DHT22;12772;49.794;10.024;2023-02-11T21:54:33;7.50;57.30
24636;DHT22;12772;49.794;10.024;2023-02-11T21:58:35;7.30;56.90
24636;DHT22;12772;49.794;10.024;2023-02-11T22:02:37;7.60;57.10
24636;DHT22;12772;49.794;10.024;2023-02-11T22:06:39;7.60;57.10
24636;DHT22;12772;49.794;10.024;2023-02-11T22:10:41;7.80;57.30
24636;DHT22;12772;49.794;10.024;2023-02-11T22:14:43;7.40;56.70
24636;DHT22;12772;49.794;10.024;2023-02-11T22:18:46;7.30;56.40
24636;DHT22;12772;49.794;10.024;2023-02-11T22:22:48;7.30;56.40
24636;DHT22;12772;49.794;10.024;2023-02-11T22:26:50;7.20;56.10
24636;DHT22;12772;49.794;10.024;2023-02-11T22:30:54;7.70;57.20
24636;DHT22;12772;49.794;10.024;2023-02-11T22:34:56;7.70;56.60
24636;DHT22;12772;49.794;10.024;2023-02-11T22:39:04;7.30;56.10
24636;DHT22;12772;49.794;10.024;2023-02-11T22:43:06;7.90;56.50
24636;DHT22;12772;49.794;10.024;2023-02-11T22:47:08;7.80;56.30
24636;DHT22;12772;49.794;10.024;2023-02-11T22:51:14;7.90;56.40
24636;DHT22;12772;49.794;10.024;2023-02-11T22:55:16;7.30;55.90
24636;DHT22;12772;49.794;10.024;2023-02-11T22:59:19;7.80;56.40
24636;DHT22;12772;49.794;10.024;2023-02-11T23:03:21;7.70;56.40
24636;DHT22;12772;49.794;10.024;2023-02-11T23:07:23;7.70;56.50
24636;DHT22;12772;49.794;10.024;2023-02-11T23:11:28;7.70;56.40
24636;DHT22;12772;49.794;10.024;2023-02-11T23:15:31;7.20;55.90
24636;DHT22;12772;49.794;10.024;2023-02-11T23:19:33;7.20;55.80
24636;DHT22;12772;49.794;10.024;2023-02-11T23:23:35;7.70;56.50
24636;DHT22;12772;49.794;10.024;2023-02-11T23:27:37;7.60;56.60
24636;DHT22;12772;49.794;10.024;2023-02-11T23:31:41;7.40;56.40
24636;DHT22;12772;49.794;10.024;2023-02-11T23:35:45;7.30;56.40
24636;DHT22;12772;49.794;10.024;2023-02-11T23:39:47;7.10;56.30
24636;DHT22;12772;49.794;10.024;2023-02-11T23:43:50;7.60;56.80
24636;DHT22;12772;49.794;10.024;2023-02-11T23:47:53;7.40;56.40
24636;DHT22;12772;49.794;10.024;2023-02-11T23:51:55;7.70;56.70
24636;DHT22;12772;49.794;10.024;2023-02-11T23:55:57;7.40;56.30
24636;DHT22;12772;49.794;10.024;2023-02-11T23:59:59;7.80;56.70
